Time;durP1;ratioP1;P1;durP2;ratioP2;P2;SDS_P1;SDS_P2;PMS_P1;PMS_P2;Temp;Humidity;BMP_temperature;BMP_pressure;BME280_temperature;BME280_humidity;BME280_pressure;Samples;Min_cycle;Max_cycle;Signal;HPM_P1;HPM_P2
2021/08/26 06:04:27;;;;;;;14.45;4.17;;;;;;;19.60;82.17;99601.56;1707998;82;21023;-33
2021/08/26 06:06:54;;;;;;;6.58;3.83;;;;;;;19.76;82.01;99592.84;1667561;84;21681;-31
2021/08/26 06:09:21;;;;;;;8.25;4.92;;;;;;;19.90;81.70;99592.58;1661044;84;21057;-37
2021/08/26 06:11:47;;;;;;;10.55;4.28;;;;;;;20.03;81.29;99595.95;1706370;82;21054;-32
2021/08/26 06:14:14;;;;;;;10.50;4.60;;;;;;;20.13;80.82;99596.74;1708683;82;21013;-33
2021/08/26 06:16:41;;;;;;;8.00;4.10;;;;;;;20.24;80.44;99585.58;1711228;82;21649;-32
2021/08/26 06:19:08;;;;;;;10.32;4.50;;;;;;;20.38;80.23;99590.18;1694780;82;21038;-37
2021/08/26 06:21:35;;;;;;;7.92;4.03;;;;;;;20.51;80.02;99581.98;1698015;82;21799;-32
2021/08/26 06:24:06;;;;;;;18.87;5.65;;;;;;;20.63;79.58;99579.16;1711702;83;21591;-32
2021/08/26 06:26:31;;;;;;;12.25;4.37;;;;;;;20.76;79.29;99575.38;1690630;84;21084;-37
2021/08/26 06:28:57;;;;;;;7.65;4.67;;;;;;;20.91;78.89;99574.57;1699801;82;21532;-32
2021/08/26 06:31:24;;;;;;;11.93;4.83;;;;;;;21.05;78.23;99569.38;1708075;82;21125;-32
2021/08/26 06:33:52;;;;;;;9.50;4.20;;;;;;;21.18;77.65;99576.21;1688555;83;21469;-36
2021/08/26 06:36:18;;;;;;;10.58;4.97;;;;;;;21.31;77.46;99577.75;1671360;84;21435;-31
2021/08/26 06:38:45;;;;;;;9.28;4.20;;;;;;;21.44;76.81;99570.80;1688902;82;21592;-38
2021/08/26 06:41:11;;;;;;;6.67;4.40;;;;;;;21.58;75.95;99575.36;1693588;82;21028;-32
2021/08/26 06:43:38;;;;;;;15.32;4.35;;;;;;;21.77;75.96;99576.02;1692269;83;21465;-38
2021/08/26 06:46:04;;;;;;;11.78;5.05;;;;;;;21.97;74.76;99570.38;1705269;82;21065;-38
2021/08/26 06:48:31;;;;;;;7.92;5.22;;;;;;;22.17;73.42;99571.92;1645693;85;20981;-33
2021/08/26 06:50:58;;;;;;;8.08;5.37;;;;;;;22.33;72.48;99581.20;1660199;84;21006;-38
2021/08/26 06:53:25;;;;;;;7.80;4.72;;;;;;;22.41;72.38;99583.41;1685749;83;21031;-38
2021/08/26 06:55:52;;;;;;;7.60;5.42;;;;;;;22.47;72.14;99582.55;1629525;86;21108;-38
2021/08/26 06:58:18;;;;;;;8.63;5.20;;;;;;;22.53;71.75;99569.33;1641235;85;21088;-32
2021/08/26 07:00:45;;;;;;;9.68;5.17;;;;;;;22.60;71.03;99577.81;1650517;85;21075;-34
2021/08/26 07:03:12;;;;;;;6.45;4.83;;;;;;;22.64;71.17;99576.20;1647448;85;21079;-34
2021/08/26 07:05:39;;;;;;;6.83;5.30;;;;;;;22.67;71.22;99580.03;1719439;82;21066;-33
2021/08/26 07:08:06;;;;;;;10.15;5.17;;;;;;;22.73;71.44;99583.66;1718538;82;21687;-38
2021/08/26 07:10:32;;;;;;;11.50;5.65;;;;;;;22.81;70.93;99582.69;1720490;82;21152;-38
2021/08/26 07:13:00;;;;;;;13.35;5.75;;;;;;;22.89;70.95;99577.39;1710704;82;21074;-38
2021/08/26 07:15:26;;;;;;;14.47;5.50;;;;;;;22.94;70.52;99582.81;1694135;83;21522;-32
2021/08/26 07:17:55;;;;;;;19.52;6.15;;;;;;;23.00;70.05;99582.91;1706616;81;21575;-32
2021/08/26 07:20:23;;;;;;;12.05;6.20;;;;;;;23.03;69.99;99582.73;1696266;82;21092;-38
2021/08/26 07:22:50;;;;;;;13.10;5.65;;;;;;;23.10;69.63;99582.25;1682437;83;21187;-33
2021/08/26 07:25:16;;;;;;;9.88;6.00;;;;;;;23.17;69.46;99580.05;1703331;82;21063;-32
2021/08/26 07:27:45;;;;;;;14.35;5.75;;;;;;;23.24;68.54;99571.17;1714788;82;21069;-33
2021/08/26 07:30:12;;;;;;;12.35;5.90;;;;;;;;;;1714003;82;21191;-32
2021/08/26 07:32:38;;;;;;;10.78;6.45;;;;;;;23.34;67.16;99570.48;1685367;83;21555;-32
2021/08/26 07:35:07;;;;;;;15.60;6.85;;;;;;;23.41;66.78;99568.76;1687980;84;21034;-32
2021/08/26 07:37:33;;;;;;;11.03;6.62;;;;;;;23.46;66.30;99566.66;1710279;83;21074;-38
2021/08/26 07:40:00;;;;;;;13.80;8.13;;;;;;;23.50;66.23;99570.37;1712634;82;21481;-32
2021/08/26 07:42:27;;;;;;;17.30;6.75;;;;;;;23.53;66.35;99570.63;1699835;82;21498;-38
2021/08/26 07:45:01;;;;;;;11.28;6.12;;;;;;;23.55;65.84;99564.73;1702100;82;20996;-38
2021/08/26 07:47:22;;;;;;;14.90;5.87;;;;;;;23.62;65.59;99573.61;1709188;82;21125;-38
2021/08/26 07:49:49;;;;;;;13.35;6.55;;;;;;;23.70;65.71;99571.76;1692165;82;21568;-38
2021/08/26 07:52:16;;;;;;;9.83;6.55;;;;;;;23.79;65.45;99562.30;1708647;82;21115;-38
2021/08/26 07:54:44;;;;;;;13.48;7.10;;;;;;;23.89;64.88;99556.25;1702355;82;21029;-38
2021/08/26 07:57:13;;;;;;;11.88;6.92;;;;;;;23.99;64.12;99557.81;1684251;84;21036;-38
2021/08/26 07:59:39;;;;;;;14.40;7.87;;;;;;;24.08;63.78;99567.89;1691891;82;21101;-38
2021/08/26 08:02:07;;;;;;;14.75;7.05;;;;;;;24.18;63.45;99556.12;1688399;82;21671;-38
2021/08/26 08:04:33;;;;;;;12.37;6.25;;;;;;;24.33;63.38;99549.70;1698945;82;21751;-38
2021/08/26 08:07:00;;;;;;;10.93;6.90;;;;;;;24.49;63.17;99540.67;1686996;83;21577;-38
2021/08/26 08:09:28;;;;;;;12.25;7.40;;;;;;;24.59;61.88;99544.43;1707473;82;21007;-38
2021/08/26 08:11:55;;;;;;;12.90;7.00;;;;;;;24.64;60.87;99548.49;1694122;82;21096;-39
2021/08/26 08:14:23;;;;;;;9.95;6.47;;;;;;;24.69;59.98;99542.80;1690219;82;20993;-38
2021/08/26 08:16:51;;;;;;;8.08;6.62;;;;;;;24.72;59.92;99547.95;1687734;82;21047;-38
2021/08/26 08:19:17;;;;;;;14.78;6.83;;;;;;;24.78;59.96;99543.98;1685743;82;21511;-38
2021/08/26 08:21:44;;;;;;;18.12;7.53;;;;;;;25.02;59.47;99526.67;1705301;81;21045;-39
2021/08/26 08:24:11;;;;;;;23.45;7.53;;;;;;;25.02;59.47;99526.67;1711053;82;20981;-33
2021/08/26 08:26:38;;;;;;;13.72;7.37;;;;;;;25.24;59.02;99524.67;1702681;82;21533;-33
2021/08/26 08:29:04;;;;;;;11.93;6.78;;;;;;;25.24;59.02;99524.67;1699374;82;20988;-38
2021/08/26 08:31:31;;;;;;;15.18;6.95;;;;;;;25.24;59.74;99517.98;1703602;82;21070;-33
2021/08/26 08:34:00;;;;;;;15.05;7.33;;;;;;;25.23;59.78;99520.30;1703316;82;20993;-33
2021/08/26 08:36:27;;;;;;;10.45;6.47;;;;;;;25.23;59.48;99527.84;1710965;82;21100;-39
2021/08/26 08:38:53;;;;;;;18.60;7.75;;;;;;;25.19;59.14;99538.39;1685528;82;21020;-39
2021/08/26 08:41:21;;;;;;;15.48;7.28;;;;;;;24.97;59.93;99545.72;1706764;82;21572;-39
2021/08/26 08:43:48;;;;;;;17.40;7.47;;;;;;;24.97;59.93;99545.72;1688402;83;21482;-33
2021/08/26 08:46:16;;;;;;;16.02;8.05;;;;;;;24.88;60.84;99535.69;1691726;83;21040;-39
2021/08/26 08:48:43;;;;;;;12.53;8.48;;;;;;;24.72;61.63;99520.35;1681193;83;21548;-39
2021/08/26 08:51:10;;;;;;;25.77;17.15;;;;;;;24.72;61.63;99520.35;1693782;82;21455;-33
2021/08/26 08:53:38;;;;;;;24.57;16.55;;;;;;;24.54;62.08;99530.03;1698996;82;21051;-35
2021/08/26 08:56:06;;;;;;;16.82;8.88;;;;;;;24.45;62.12;99540.50;1708016;82;21036;-34
2021/08/26 08:58:40;;;;;;;13.25;8.23;;;;;;;24.45;62.12;99540.50;1700679;82;21020;-34
2021/08/26 09:01:08;;;;;;;38.90;14.93;;;;;;;24.19;63.31;99571.67;1693348;82;21040;-38
2021/08/26 09:03:37;;;;;;;27.27;10.95;;;;;;;24.19;63.31;99571.67;1690255;82;21011;-38
2021/08/26 09:06:04;;;;;;;36.30;11.18;;;;;;;24.08;67.10;99586.59;1709817;82;21052;-39
2021/08/26 09:08:32;;;;;;;28.75;10.88;;;;;;;23.75;70.45;99578.99;1686649;83;21013;-33
2021/08/26 09:11:16;;;;;;;26.52;10.82;;;;;;;23.36;72.47;99532.54;1699226;84;21876;-33
2021/08/26 09:13:45;;;;;;;19.23;9.43;;;;;;;23.04;73.03;99535.95;1693767;83;21549;-38
2021/08/26 09:16:12;;;;;;;26.20;11.22;;;;;;;22.86;73.67;99550.41;1700331;82;21510;-33
2021/08/26 09:18:39;;;;;;;21.12;9.55;;;;;;;22.78;75.67;99550.87;1682690;82;21036;-33
2021/08/26 09:21:10;;;;;;;29.23;11.40;;;;;;;22.64;75.96;99560.20;1698058;82;21514;-32
2021/08/26 09:23:56;;;;;;;22.35;10.43;;;;;;;22.44;78.54;99568.09;1686463;84;21001;-39
2021/08/26 09:26:26;;;;;;;24.70;13.72;;;;;;;22.25;79.41;99576.31;1697445;84;21043;-33
2021/08/26 09:28:54;;;;;;;26.15;14.25;;;;;;;22.04;80.56;99574.90;1687431;83;21480;-33
2021/08/26 09:31:23;;;;;;;22.32;13.08;;;;;;;21.87;81.89;99565.70;1679967;84;21540;-33
2021/08/26 09:34:05;;;;;;;15.53;11.75;;;;;;;21.75;82.97;99572.59;1700179;82;21509;-39
2021/08/26 09:36:40;;;;;;;24.75;12.37;;;;;;;21.67;82.70;99572.16;1704706;82;21117;-38
2021/08/26 09:39:09;;;;;;;21.40;12.00;;;;;;;21.60;81.90;99578.30;1694859;82;21125;-38
2021/08/26 09:41:52;;;;;;;21.42;12.58;;;;;;;21.58;81.86;99587.33;1682162;82;21041;-39
2021/08/26 09:44:31;;;;;;;27.80;15.05;;;;;;;21.56;82.29;99586.06;1714031;82;21035;-39
2021/08/26 09:47:02;;;;;;;21.68;12.82;;;;;;;21.57;82.66;99585.59;1706894;82;21045;-39
2021/08/26 09:49:30;;;;;;;21.40;14.28;;;;;;;21.59;83.18;99577.92;1719170;82;20963;-39
2021/08/26 09:52:10;;;;;;;19.65;13.43;;;;;;;21.63;83.75;99574.63;1717200;82;21033;-39
2021/08/26 09:54:43;;;;;;;19.00;12.53;;;;;;;21.74;84.46;99572.19;1686918;82;21027;-39
2021/08/26 09:57:30;;;;;;;26.10;12.47;;;;;;;21.86;84.89;99571.95;1685609;83;21118;-39
2021/08/26 09:59:59;;;;;;;20.68;11.63;;;;;;;22.04;86.12;99563.77;1695209;82;21562;-39
2021/08/26 10:02:28;;;;;;;20.50;12.53;;;;;;;22.22;85.74;99555.67;1686246;82;21104;-39
2021/08/26 10:04:56;;;;;;;25.02;13.75;;;;;;;22.30;85.20;99552.92;1692354;82;21046;-39
2021/08/26 10:07:24;;;;;;;17.65;13.45;;;;;;;22.33;83.93;99553.70;1685972;84;21084;-39
2021/08/26 10:09:52;;;;;;;33.20;17.00;;;;;;;22.36;83.99;99554.84;1702127;82;21032;-39
2021/08/26 10:12:18;;;;;;;22.85;14.98;;;;;;;22.38;83.16;99543.16;1698658;82;21041;-39
2021/08/26 10:14:50;;;;;;;20.57;12.33;;;;;;;22.39;82.73;99540.02;1689308;82;21074;-39
2021/08/26 10:17:18;;;;;;;;;;;;;;;22.39;82.64;99538.68;1723713;82;21065;-39
2021/08/26 10:19:44;;;;;;;17.10;12.13;;;;;;;22.38;83.46;99536.49;1697150;82;20128;-39
2021/08/26 10:22:13;;;;;;;22.13;12.70;;;;;;;22.32;84.42;99542.16;1680891;84;21532;-39
2021/08/26 10:24:40;;;;;;;20.20;13.05;;;;;;;22.24;85.82;99541.30;1681812;84;21557;-39
2021/08/26 10:27:14;;;;;;;17.17;12.35;;;;;;;22.23;87.08;99547.58;1669763;84;21563;-39
2021/08/26 10:29:47;;;;;;;15.68;11.73;;;;;;;22.25;85.98;99551.00;1683492;84;21004;-39
2021/08/26 10:32:24;;;;;;;22.45;13.80;;;;;;;22.28;84.34;99557.97;1695271;82;21703;-39
2021/08/26 10:35:12;;;;;;;24.82;13.30;;;;;;;22.29;85.43;99560.53;1679241;84;21039;-39
2021/08/26 10:37:54;;;;;;;23.20;13.70;;;;;;;22.37;86.47;99561.88;1700358;82;21686;-39
2021/08/26 10:40:37;;;;;;;26.23;13.20;;;;;;;22.58;86.18;99569.44;1698160;82;21091;-39
2021/08/26 10:43:06;;;;;;;18.55;11.60;;;;;;;22.77;83.27;99569.16;1686588;83;21043;-39
2021/08/26 10:45:49;;;;;;;14.93;11.15;;;;;;;22.93;82.63;99572.25;1705327;82;21025;-38
2021/08/26 10:48:20;;;;;;;14.83;10.90;;;;;;;23.00;81.49;99563.77;1715828;82;21134;-39
2021/08/26 10:51:03;;;;;;;17.82;10.80;;;;;;;23.01;81.61;99559.28;1708920;82;21020;-33
2021/08/26 10:53:32;;;;;;;20.12;12.47;;;;;;;22.99;82.46;99554.53;1692136;82;21111;-35
2021/08/26 10:56:18;;;;;;;14.80;10.72;;;;;;;22.95;82.75;99549.86;1717636;82;21094;-33
2021/08/26 10:58:48;;;;;;;25.92;12.53;;;;;;;22.92;83.00;99546.06;1699494;82;21029;-33
2021/08/26 11:01:34;;;;;;;16.73;12.03;;;;;;;23.02;83.86;99537.02;1698319;83;21047;-33
2021/08/26 11:04:08;;;;;;;12.80;9.55;;;;;;;23.31;83.46;99533.34;1710650;82;21095;-32
2021/08/26 11:06:36;;;;;;;14.33;10.70;;;;;;;23.71;79.84;99537.42;1711198;82;21040;-33
2021/08/26 11:09:22;;;;;;;12.13;10.13;;;;;;;23.75;79.92;99537.60;1701053;81;21084;-32
2021/08/26 11:11:57;;;;;;;15.48;10.03;;;;;;;23.66;77.93;99540.02;1719962;82;21038;-31
2021/08/26 11:14:24;;;;;;;14.40;9.73;;;;;;;23.45;80.15;99540.92;1694600;82;21016;-32
2021/08/26 11:16:59;;;;;;;;;;;;;;;23.34;81.04;99554.95;1668173;84;21142;-32
2021/08/26 11:19:29;;;;;;;14.10;7.83;;;;;;;23.17;78.21;99560.03;1710453;82;20137;-32
2021/08/26 11:22:08;;;;;;;13.10;7.70;;;;;;;22.94;77.42;99548.14;1702987;82;21114;-33
2021/08/26 11:24:41;;;;;;;9.70;7.08;;;;;;;22.76;76.67;99546.59;1695713;82;21012;-33
2021/08/26 11:27:26;;;;;;;10.08;8.08;;;;;;;22.62;76.51;99539.47;1701243;82;21613;-32
2021/08/26 11:29:53;;;;;;;9.68;7.20;;;;;;;22.57;76.50;99541.07;1702565;82;21516;-32
2021/08/26 11:32:20;;;;;;;11.25;7.50;;;;;;;22.60;76.66;99532.02;1688778;82;21094;-32
2021/08/26 11:34:50;;;;;;;9.78;7.12;;;;;;;22.67;76.01;99527.16;1683619;82;21042;-33
2021/08/26 11:37:28;;;;;;;8.18;6.28;;;;;;;22.74;74.67;99524.52;1695912;82;21075;-32
2021/08/26 11:40:07;;;;;;;8.08;6.92;;;;;;;22.80;76.55;99524.13;1703753;81;20978;-33
2021/08/26 11:42:38;;;;;;;10.23;6.00;;;;;;;22.88;76.63;99533.02;1688012;83;21080;-38
2021/08/26 11:45:25;;;;;;;7.95;6.62;;;;;;;22.90;73.79;99527.09;1677655;83;21014;-39
2021/08/26 11:48:04;;;;;;;10.75;6.50;;;;;;;22.84;74.63;99530.52;1711215;82;21136;-33
2021/08/26 11:50:36;;;;;;;8.08;6.45;;;;;;;22.81;75.28;99527.17;1715975;82;21493;-38
2021/08/26 11:53:06;;;;;;;8.45;6.83;;;;;;;22.80;75.30;99533.47;1696636;82;21124;-39
2021/08/26 11:55:39;;;;;;;14.98;6.97;;;;;;;22.78;76.06;99533.54;1687818;82;21478;-34
2021/08/26 11:58:08;;;;;;;8.68;6.62;;;;;;;22.77;76.42;99534.98;1694640;82;21103;-38
2021/08/26 12:00:44;;;;;;;9.03;6.92;;;;;;;22.79;76.64;99525.09;1689978;82;20981;-38
2021/08/26 12:03:12;;;;;;;11.50;7.62;;;;;;;22.81;77.56;99516.03;1676678;84;21046;-38
2021/08/26 12:05:40;;;;;;;12.55;7.67;;;;;;;22.87;77.69;99516.60;1691370;83;21056;-32
2021/08/26 12:08:08;;;;;;;11.68;7.12;;;;;;;22.90;77.19;99509.76;1700377;82;21116;-33
2021/08/26 12:10:43;;;;;;;11.70;7.78;;;;;;;22.91;78.50;99508.83;1715802;82;20990;-38
2021/08/26 12:13:13;;;;;;;11.93;7.22;;;;;;;22.92;77.75;99504.73;1685371;84;21074;-32
2021/08/26 12:15:43;;;;;;;10.48;8.08;;;;;;;22.94;77.89;99502.81;1704146;82;21091;-33
2021/08/26 12:18:16;;;;;;;10.20;8.23;;;;;;;22.95;78.67;99498.33;1711884;82;21482;-38
2021/08/26 12:20:48;;;;;;;15.28;8.68;;;;;;;22.94;78.39;99494.81;1706324;82;21101;-33
2021/08/26 12:23:24;;;;;;;10.53;7.40;;;;;;;22.93;76.79;99485.58;1697856;81;21587;-33
2021/08/26 12:26:09;;;;;;;13.35;7.90;;;;;;;22.93;78.28;99474.91;1715795;82;20958;-33
2021/08/26 12:28:58;;;;;;;11.97;7.20;;;;;;;22.92;77.86;99465.20;1701741;82;20985;-39
2021/08/26 12:31:25;;;;;;;9.83;7.65;;;;;;;22.90;77.82;99472.42;1705810;82;21132;-33
2021/08/26 12:34:12;;;;;;;14.85;7.58;;;;;;;22.83;77.04;99470.11;1709108;82;21010;-34
2021/08/26 12:36:43;;;;;;;13.85;6.75;;;;;;;22.77;77.61;99471.84;1694334;82;21059;-38
2021/08/26 12:39:27;;;;;;;11.10;6.87;;;;;;;22.73;77.92;99463.67;1706509;82;21555;-33
2021/08/26 12:42:08;;;;;;;9.75;7.10;;;;;;;22.71;77.32;99459.37;1702394;82;21076;-32
2021/08/26 12:44:35;;;;;;;10.58;6.60;;;;;;;22.68;77.38;99451.11;1718193;82;21034;-38
2021/08/26 12:47:06;;;;;;;10.05;6.87;;;;;;;22.68;77.48;99439.59;1695907;83;21597;-33
2021/08/26 12:49:43;;;;;;;16.02;7.58;;;;;;;22.67;77.04;99435.19;1703691;82;21542;-33
2021/08/26 12:52:09;;;;;;;10.50;7.15;;;;;;;22.65;77.01;99427.30;1692495;82;21060;-37
2021/08/26 12:54:41;;;;;;;11.48;7.55;;;;;;;22.63;77.48;99425.22;1705359;82;21048;-37
2021/08/26 12:57:05;;;;;;;13.83;6.70;;;;;;;22.63;78.00;99423.03;1684567;83;21070;-39
2021/08/26 12:59:39;;;;;;;10.10;7.00;;;;;;;22.64;78.81;99420.27;1700260;82;21481;-37
2021/08/26 13:02:10;;;;;;;9.15;6.90;;;;;;;22.65;78.28;99426.45;1689324;83;21080;-38
2021/08/26 13:04:37;;;;;;;9.78;7.53;;;;;;;22.63;78.20;99418.55;1682293;84;21517;-33
2021/08/26 13:07:18;;;;;;;8.68;7.15;;;;;;;22.61;78.00;99419.11;1696550;81;21058;-33
2021/08/26 13:09:58;;;;;;;11.65;7.58;;;;;;;22.57;78.13;99417.13;1707349;82;21030;-34
2021/08/26 13:12:26;;;;;;;8.18;6.65;;;;;;;22.54;78.36;99412.45;1690745;83;21080;-33
2021/08/26 13:14:55;;;;;;;9.68;7.37;;;;;;;22.50;78.34;99405.63;1692954;82;21071;-34
2021/08/26 13:17:25;;;;;;;10.18;7.62;;;;;;;22.46;78.28;99410.28;1705291;82;21651;-38
2021/08/26 13:19:54;;;;;;;8.75;7.50;;;;;;;22.41;78.19;99415.05;1702957;82;20984;-34
2021/08/26 13:22:30;;;;;;;12.55;7.37;;;;;;;22.37;78.42;99408.19;1694375;82;21563;-38
2021/08/26 13:24:55;;;;;;;9.45;7.33;;;;;;;22.29;78.74;99406.01;1688531;83;21053;-39
2021/08/26 13:27:23;;;;;;;7.58;6.75;;;;;;;22.25;79.10;99411.61;1704554;82;21592;-38
2021/08/26 13:29:49;;;;;;;12.35;7.62;;;;;;;22.22;79.59;99407.83;1701384;82;21571;-33
2021/08/26 13:32:18;;;;;;;17.15;7.83;;;;;;;22.20;80.00;99405.23;1711784;82;21088;-32
2021/08/26 13:34:44;;;;;;;9.65;8.58;;;;;;;22.17;80.52;99404.11;1694612;83;20968;-38
2021/08/26 13:37:12;;;;;;;15.90;9.18;;;;;;;22.17;81.43;99414.77;1705790;82;21075;-38
2021/08/26 13:39:40;;;;;;;14.55;7.95;;;;;;;22.14;81.75;99417.59;1711542;82;21033;-39
2021/08/26 13:42:07;;;;;;;11.68;8.10;;;;;;;22.13;81.80;99431.02;1696569;82;21726;-39
2021/08/26 13:44:35;;;;;;;12.78;8.50;;;;;;;22.11;81.55;99424.94;1694812;84;20966;-39
2021/08/26 13:47:03;;;;;;;14.58;8.30;;;;;;;22.09;82.00;99430.34;1702615;83;21120;-39
2021/08/26 13:49:30;;;;;;;12.45;8.05;;;;;;;22.09;82.51;99430.78;1708699;84;21582;-39
2021/08/26 13:51:57;;;;;;;13.68;8.40;;;;;;;22.08;82.56;99435.25;1698785;83;21625;-33
2021/08/26 13:54:24;;;;;;;15.68;9.25;;;;;;;22.12;83.61;99450.62;1699055;82;21025;-39
2021/08/26 13:56:50;;;;;;;9.38;7.87;;;;;;;22.16;83.93;99450.83;1680936;84;21064;-39
2021/08/26 13:59:17;;;;;;;11.25;7.50;;;;;;;22.22;83.41;99465.09;1700672;83;21574;-33
2021/08/26 14:01:45;;;;;;;13.00;9.00;;;;;;;22.33;83.17;99473.77;1689428;83;21065;-39
2021/08/26 14:04:12;;;;;;;10.08;8.18;;;;;;;22.44;83.24;99485.93;1690696;84;21049;-39
2021/08/26 14:06:41;;;;;;;11.78;7.90;;;;;;;22.48;83.06;99493.66;1690031;83;21080;-39
2021/08/26 14:09:08;;;;;;;11.48;9.25;;;;;;;22.54;82.46;99497.75;1701911;83;21029;-39
2021/08/26 14:11:34;;;;;;;15.03;8.88;;;;;;;22.52;82.56;99491.19;1689160;84;21113;-33
2021/08/26 14:14:02;;;;;;;10.35;8.10;;;;;;;22.49;82.90;99487.84;1690929;84;21033;-39
2021/08/26 14:16:30;;;;;;;10.18;8.73;;;;;;;22.46;80.93;99488.05;1701679;84;21135;-39
2021/08/26 14:18:57;;;;;;;13.13;9.15;;;;;;;22.39;80.83;99482.24;1692732;83;21076;-33
2021/08/26 14:21:23;;;;;;;9.48;7.70;;;;;;;22.28;81.96;99478.90;1698527;83;21033;-33
2021/08/26 14:23:50;;;;;;;11.73;8.45;;;;;;;22.14;83.09;99476.20;1679794;83;21047;-33
2021/08/26 14:26:18;;;;;;;13.85;9.10;;;;;;;22.01;84.45;99475.20;1716425;82;21180;-39
2021/08/26 14:28:45;;;;;;;10.35;8.43;;;;;;;21.91;84.45;99471.36;1722843;81;21029;-39
2021/08/26 14:31:12;;;;;;;10.50;8.30;;;;;;;21.78;84.18;99480.08;1681017;85;21571;-33
2021/08/26 14:33:38;;;;;;;12.63;9.65;;;;;;;21.67;85.11;99479.85;1685937;82;21005;-38
2021/08/26 14:36:06;;;;;;;14.30;9.40;;;;;;;21.57;86.74;99479.14;1699434;83;21065;-33
2021/08/26 14:38:33;;;;;;;11.15;9.05;;;;;;;21.48;88.27;99477.88;1702267;84;21540;-33
2021/08/26 14:41:01;;;;;;;12.18;9.25;;;;;;;21.37;89.28;99480.30;1691324;84;21045;-39
2021/08/26 14:43:28;;;;;;;13.05;9.23;;;;;;;21.27;89.78;99479.92;1684226;84;21033;-39
2021/08/26 14:45:56;;;;;;;13.83;10.85;;;;;;;21.17;90.87;99488.06;1694370;84;21500;-39
2021/08/26 14:48:23;;;;;;;16.57;10.50;;;;;;;21.08;91.74;99489.42;1676324;84;21138;-32
2021/08/26 14:50:50;;;;;;;13.58;9.88;;;;;;;21.01;92.79;99488.05;1688068;82;21862;-33
2021/08/26 14:53:17;;;;;;;13.22;10.13;;;;;;;20.95;93.36;99489.25;1689918;84;21545;-37
2021/08/26 14:55:46;;;;;;;15.10;11.25;;;;;;;20.89;93.95;99490.92;1705089;84;21642;-33
2021/08/26 14:58:13;;;;;;;16.20;11.35;;;;;;;20.85;94.58;99491.16;1690681;84;21165;-32
2021/08/26 15:00:40;;;;;;;18.85;11.10;;;;;;;20.78;94.88;99490.65;1701072;84;21082;-37
2021/08/26 15:03:07;;;;;;;12.58;10.15;;;;;;;20.73;95.10;99499.34;1688856;83;21085;-38
2021/08/26 15:05:33;;;;;;;15.65;10.88;;;;;;;20.69;94.75;99503.09;1693801;84;21076;-38
2021/08/26 15:08:00;;;;;;;11.48;9.75;;;;;;;20.66;94.83;99499.29;1697206;83;21125;-32
2021/08/26 15:10:27;;;;;;;12.60;10.15;;;;;;;20.65;94.71;99505.55;1705822;84;21570;-32
2021/08/26 15:12:53;;;;;;;13.28;10.38;;;;;;;20.63;94.99;99512.72;1686586;84;21596;-38
2021/08/26 15:15:22;;;;;;;15.50;10.38;;;;;;;20.62;95.17;99514.53;1699395;84;21067;-38
